TJSJ/SJU METAR and TAF weather

Enter ICAO airport designator
Station Type Date Time Source
TJSJ METAR 2022/11/30 10:56 UTC NOAA

TJSJ 301056Z 00000KT 10SM FEW026 SCT034 24/23 A2994 RMK AO2 RAE45 SLP136 P0000 T02440228


Station Type Date Time Source
TJSJ Decoded METAR 2022/11/30 10:56 UTC NOAA

San Juan, Luis Munoz Marin International Airport, PR, United States (TJSJ) 18-27N 066-00W
Nov 30, 2022 - 05:56 AM EST / 2022.11.30 1056 UTC
Wind: Calm:0
Visibility: 10 mile(s):0
Sky conditions: partly cloudy
Precipitation last hour: A trace
Temperature: 75.9 F (24.4 C)
Dew Point: 73.0 F (22.8 C)
Relative Humidity: 90%
Pressure (altimeter): 29.94 in. Hg (1013 hPa)
ob: TJSJ 301056Z 00000KT 10SM FEW026 SCT034 24/23 A2994 RMK AO2 RAE45 SLP136 P0000 T02440228
cycle: 11

Station Type Date Time Source
TJSJ TAF 2022/11/30 06:42 UTC NOAA

TAF TJSJ 300536Z 3006/0106 10004KT P6SM VCSH FEW026 SCT030 SCT050
FM301400 07013KT P6SM VCSH FEW026 SCT035
FM302300 05009KT P6SM SCT030

Example: see airport list